Portada
METAR-TAF:

METAR-TAF

Aeroports :

Albert, França

latitud: 49-58-21N, longitud: 002-41-29E, altitud: 111 m

Observació

L'informe es va fer fa 43 minuts, a les 10:00 UTC
Vent 14 kt del Sud
Temperatura 6°C
Humitat 81%
Pressió 999 hPa
Visibilitat 10 km o més
pluja

METAR: LFAQ 201000Z AUTO 18014KT 9999 -RA NSC 06/03 Q0999 TEMPO 18017G27KT

Hora: 11:43 (10:43 UTC)

Pronòstic

L'informe es va fer fa 2 hores i 43 minuts, a les 08:00 UTC
Pronòstic vàlid del 20 a les 09 UTC al 20 a les 18 UTC
Vent 15 kt del Sud
Visibilitat 10 km o més
Cel ennuvolat a una alçada de 4500 ft
Temporalment
l' 20 a les 09 UTC al 20 a les 11 UTC
Vent 17 kt del Sud amb ràfegues de 27 kt
pluja
Temporalment
l' 20 a les 11 UTC al 20 a les 18 UTC
Vent 17 kt del Sud amb ràfegues de 27 kt

TAF: LFAQ 200800Z 2009/2018 18015KT 9999 BKN045 TEMPO 2009/2011 18017G27KT -RA TEMPO 2011/2018 18017G27KT

Observacions i pronòstics meteorològics de més de 4000 aeroports (METAR i TAF).

Les estacions disponibles són els punts grocs i vermells al mapa.

Posi el ratolí al punt desitjat per veure el nom de l'estació.

Feu clic per veure les observacions i els pronòstics meteorològics.

Per canviar el mapa: feu clic els botons verds amb una creu de color negre per apropar; al botó verd amb un guió per allunyar la imatge; o en les fletxes verdes per a mapes adjacents.


METAR-TAF: